sensor_id;sensor_type;location;lat;lon;timestamp;temperature;humidity
65239;SHT30;51827;51.186;6.926;2024-01-15T00:00:42;18.22;46.07
65239;SHT30;51827;51.186;6.926;2024-01-15T00:01:45;18.22;46.09
65239;SHT30;51827;51.186;6.926;2024-01-15T00:02:47;18.22;46.07
65239;SHT30;51827;51.186;6.926;2024-01-15T00:03:47;18.22;46.06
65239;SHT30;51827;51.186;6.926;2024-01-15T00:04:47;18.24;46.12
65239;SHT30;51827;51.186;6.926;2024-01-15T00:05:47;18.24;46.10
65239;SHT30;51827;51.186;6.926;2024-01-15T00:06:49;18.22;46.08
65239;SHT30;51827;51.186;6.926;2024-01-15T00:07:49;18.22;46.07
65239;SHT30;51827;51.186;6.926;2024-01-15T00:08:49;18.22;46.06
65239;SHT30;51827;51.186;6.926;2024-01-15T00:09:49;18.20;46.13
65239;SHT30;51827;51.186;6.926;2024-01-15T00:10:50;18.20;46.09
65239;SHT30;51827;51.186;6.926;2024-01-15T00:11:53;18.21;46.06
65239;SHT30;51827;51.186;6.926;2024-01-15T00:12:53;18.24;46.10
65239;SHT30;51827;51.186;6.926;2024-01-15T00:13:53;18.24;46.07
65239;SHT30;51827;51.186;6.926;2024-01-15T00:14:54;18.22;46.15
65239;SHT30;51827;51.186;6.926;2024-01-15T00:15:54;18.24;46.08
65239;SHT30;51827;51.186;6.926;2024-01-15T00:16:54;18.21;46.12
65239;SHT30;51827;51.186;6.926;2024-01-15T00:17:55;18.22;46.09
65239;SHT30;51827;51.186;6.926;2024-01-15T00:18:55;18.22;46.13
65239;SHT30;51827;51.186;6.926;2024-01-15T00:19:55;18.21;46.13
65239;SHT30;51827;51.186;6.926;2024-01-15T00:20:56;18.21;46.10
65239;SHT30;51827;51.186;6.926;2024-01-15T00:21:56;18.20;46.12
65239;SHT30;51827;51.186;6.926;2024-01-15T00:22:56;18.24;46.12
65239;SHT30;51827;51.186;6.926;2024-01-15T00:23:56;18.24;46.09
65239;SHT30;51827;51.186;6.926;2024-01-15T00:24:57;18.21;46.06
65239;SHT30;51827;51.186;6.926;2024-01-15T00:25:57;18.22;46.09
65239;SHT30;51827;51.186;6.926;2024-01-15T00:26:57;18.20;46.11
65239;SHT30;51827;51.186;6.926;2024-01-15T00:27:58;18.22;46.08
65239;SHT30;51827;51.186;6.926;2024-01-15T00:28:58;18.22;46.06
65239;SHT30;51827;51.186;6.926;2024-01-15T00:29:58;18.22;46.11
65239;SHT30;51827;51.186;6.926;2024-01-15T00:30:58;18.24;46.03
65239;SHT30;51827;51.186;6.926;2024-01-15T00:31:59;18.21;46.11
65239;SHT30;51827;51.186;6.926;2024-01-15T00:32:59;18.21;46.12
65239;SHT30;51827;51.186;6.926;2024-01-15T00:33:59;18.22;46.12
65239;SHT30;51827;51.186;6.926;2024-01-15T00:34:59;18.22;46.13
65239;SHT30;51827;51.186;6.926;2024-01-15T00:36:02;18.22;46.10
65239;SHT30;51827;51.186;6.926;2024-01-15T00:37:17;18.22;46.13
65239;SHT30;51827;51.186;6.926;2024-01-15T00:38:18;18.22;46.09
65239;SHT30;51827;51.186;6.926;2024-01-15T00:39:18;18.22;46.15
65239;SHT30;51827;51.186;6.926;2024-01-15T00:40:18;18.21;46.13
65239;SHT30;51827;51.186;6.926;2024-01-15T00:41:19;18.22;46.13
65239;SHT30;51827;51.186;6.926;2024-01-15T00:42:19;18.22;46.13
65239;SHT30;51827;51.186;6.926;2024-01-15T00:43:19;18.24;46.14
65239;SHT30;51827;51.186;6.926;2024-01-15T00:44:22;18.22;46.14
65239;SHT30;51827;51.186;6.926;2024-01-15T00:45:22;18.21;46.15
65239;SHT30;51827;51.186;6.926;2024-01-15T00:46:23;18.22;46.14
65239;SHT30;51827;51.186;6.926;2024-01-15T00:47:23;18.24;46.10
65239;SHT30;51827;51.186;6.926;2024-01-15T00:48:23;18.21;46.14
65239;SHT30;51827;51.186;6.926;2024-01-15T00:49:24;18.24;46.14
65239;SHT30;51827;51.186;6.926;2024-01-15T00:50:24;18.22;46.15
65239;SHT30;51827;51.186;6.926;2024-01-15T00:51:24;18.22;46.11
65239;SHT30;51827;51.186;6.926;2024-01-15T00:52:24;18.24;46.14
65239;SHT30;51827;51.186;6.926;2024-01-15T00:53:25;18.22;46.11
65239;SHT30;51827;51.186;6.926;2024-01-15T00:54:26;18.21;46.18
65239;SHT30;51827;51.186;6.926;2024-01-15T00:55:28;18.22;46.14
65239;SHT30;51827;51.186;6.926;2024-01-15T00:56:28;18.21;46.17
65239;SHT30;51827;51.186;6.926;2024-01-15T00:57:28;18.21;46.17
65239;SHT30;51827;51.186;6.926;2024-01-15T00:58:29;18.22;46.16
65239;SHT30;51827;51.186;6.926;2024-01-15T00:59:29;18.22;46.15
65239;SHT30;51827;51.186;6.926;2024-01-15T01:00:29;18.22;46.18
65239;SHT30;51827;51.186;6.926;2024-01-15T01:01:29;18.21;46.18
65239;SHT30;51827;51.186;6.926;2024-01-15T01:02:30;18.22;46.21
65239;SHT30;51827;51.186;6.926;2024-01-15T01:03:30;18.20;46.21
65239;SHT30;51827;51.186;6.926;2024-01-15T01:04:30;18.22;46.19
65239;SHT30;51827;51.186;6.926;2024-01-15T01:05:31;18.21;46.21
65239;SHT30;51827;51.186;6.926;2024-01-15T01:06:31;18.20;46.20
65239;SHT30;51827;51.186;6.926;2024-01-15T01:07:31;18.21;46.17
65239;SHT30;51827;51.186;6.926;2024-01-15T01:08:31;18.21;46.20
65239;SHT30;51827;51.186;6.926;2024-01-15T01:09:32;18.22;46.20
65239;SHT30;51827;51.186;6.926;2024-01-15T01:10:32;18.22;46.22
65239;SHT30;51827;51.186;6.926;2024-01-15T01:11:32;18.24;46.22
65239;SHT30;51827;51.186;6.926;2024-01-15T01:12:32;18.21;46.24
65239;SHT30;51827;51.186;6.926;2024-01-15T01:13:33;18.21;46.24
65239;SHT30;51827;51.186;6.926;2024-01-15T01:14:33;18.21;46.24
65239;SHT30;51827;51.186;6.926;2024-01-15T01:15:33;18.21;46.25
65239;SHT30;51827;51.186;6.926;2024-01-15T01:16:33;18.21;46.27
65239;SHT30;51827;51.186;6.926;2024-01-15T01:17:34;18.21;46.26
65239;SHT30;51827;51.186;6.926;2024-01-15T01:18:34;18.18;46.24
65239;SHT30;51827;51.186;6.926;2024-01-15T01:19:35;18.21;46.26
65239;SHT30;51827;51.186;6.926;2024-01-15T01:20:35;18.20;46.23
65239;SHT30;51827;51.186;6.926;2024-01-15T01:21:35;18.22;46.27
65239;SHT30;51827;51.186;6.926;2024-01-15T01:22:36;18.21;46.29
65239;SHT30;51827;51.186;6.926;2024-01-15T01:23:36;18.21;46.29
65239;SHT30;51827;51.186;6.926;2024-01-15T01:24:36;18.20;46.28
65239;SHT30;51827;51.186;6.926;2024-01-15T01:25:37;18.21;46.33
65239;SHT30;51827;51.186;6.926;2024-01-15T01:26:37;18.21;46.29
65239;SHT30;51827;51.186;6.926;2024-01-15T01:27:37;18.21;46.31
65239;SHT30;51827;51.186;6.926;2024-01-15T01:28:37;18.22;46.28
65239;SHT30;51827;51.186;6.926;2024-01-15T01:29:38;18.21;46.29
65239;SHT30;51827;51.186;6.926;2024-01-15T01:30:38;18.17;46.30
65239;SHT30;51827;51.186;6.926;2024-01-15T01:31:45;18.21;46.31
65239;SHT30;51827;51.186;6.926;2024-01-15T01:32:45;18.21;46.33
65239;SHT30;51827;51.186;6.926;2024-01-15T01:33:45;18.20;46.31
65239;SHT30;51827;51.186;6.926;2024-01-15T01:34:45;18.21;46.33
65239;SHT30;51827;51.186;6.926;2024-01-15T01:35:46;18.20;46.34
65239;SHT30;51827;51.186;6.926;2024-01-15T01:36:46;18.21;46.31
65239;SHT30;51827;51.186;6.926;2024-01-15T01:37:46;18.18;46.35
65239;SHT30;51827;51.186;6.926;2024-01-15T01:38:46;18.20;46.36
65239;SHT30;51827;51.186;6.926;2024-01-15T01:39:47;18.24;46.36
65239;SHT30;51827;51.186;6.926;2024-01-15T01:40:47;18.22;46.34
65239;SHT30;51827;51.186;6.926;2024-01-15T01:41:47;18.21;46.35
65239;SHT30;51827;51.186;6.926;2024-01-15T01:42:48;18.22;46.38
65239;SHT30;51827;51.186;6.926;2024-01-15T01:43:49;18.22;46.34
65239;SHT30;51827;51.186;6.926;2024-01-15T01:44:49;18.24;46.30
65239;SHT30;51827;51.186;6.926;2024-01-15T01:45:49;18.21;46.38
65239;SHT30;51827;51.186;6.926;2024-01-15T01:46:49;18.21;46.33
65239;SHT30;51827;51.186;6.926;2024-01-15T01:47:50;18.21;46.35
65239;SHT30;51827;51.186;6.926;2024-01-15T01:48:50;18.20;46.35
65239;SHT30;51827;51.186;6.926;2024-01-15T01:49:50;18.21;46.36
65239;SHT30;51827;51.186;6.926;2024-01-15T01:50:53;18.21;46.38
65239;SHT30;51827;51.186;6.926;2024-01-15T01:52:00;18.22;46.40
65239;SHT30;51827;51.186;6.926;2024-01-15T01:53:01;18.20;46.34
65239;SHT30;51827;51.186;6.926;2024-01-15T01:54:02;18.21;46.41
65239;SHT30;51827;51.186;6.926;2024-01-15T01:55:03;18.24;46.38
65239;SHT30;51827;51.186;6.926;2024-01-15T01:56:04;18.20;46.40
65239;SHT30;51827;51.186;6.926;2024-01-15T01:57:05;18.21;46.37
65239;SHT30;51827;51.186;6.926;2024-01-15T01:58:06;18.22;46.40
65239;SHT30;51827;51.186;6.926;2024-01-15T01:59:08;18.22;46.39
65239;SHT30;51827;51.186;6.926;2024-01-15T02:00:10;18.21;46.39
65239;SHT30;51827;51.186;6.926;2024-01-15T02:01:12;18.20;46.38
65239;SHT30;51827;51.186;6.926;2024-01-15T02:02:13;18.17;46.43
65239;SHT30;51827;51.186;6.926;2024-01-15T02:03:13;18.21;46.36
65239;SHT30;51827;51.186;6.926;2024-01-15T02:04:14;18.20;46.44
65239;SHT30;51827;51.186;6.926;2024-01-15T02:05:18;18.21;46.42
65239;SHT30;51827;51.186;6.926;2024-01-15T02:06:19;18.21;46.42
65239;SHT30;51827;51.186;6.926;2024-01-15T02:07:19;18.21;46.42
65239;SHT30;51827;51.186;6.926;2024-01-15T02:08:19;18.21;46.39
65239;SHT30;51827;51.186;6.926;2024-01-15T02:09:20;18.24;46.42
65239;SHT30;51827;51.186;6.926;2024-01-15T02:10:20;18.21;46.37
65239;SHT30;51827;51.186;6.926;2024-01-15T02:11:21;18.21;46.44
65239;SHT30;51827;51.186;6.926;2024-01-15T02:12:21;18.22;46.43
65239;SHT30;51827;51.186;6.926;2024-01-15T02:13:22;18.20;46.44
65239;SHT30;51827;51.186;6.926;2024-01-15T02:14:22;18.21;46.42
65239;SHT30;51827;51.186;6.926;2024-01-15T02:15:22;18.21;46.39
65239;SHT30;51827;51.186;6.926;2024-01-15T02:16:23;18.20;46.46
65239;SHT30;51827;51.186;6.926;2024-01-15T02:17:23;18.21;46.41
65239;SHT30;51827;51.186;6.926;2024-01-15T02:18:23;18.22;46.42
65239;SHT30;51827;51.186;6.926;2024-01-15T02:19:24;18.21;46.46
65239;SHT30;51827;51.186;6.926;2024-01-15T02:20:25;18.24;46.43
65239;SHT30;51827;51.186;6.926;2024-01-15T02:21:25;18.20;46.47
65239;SHT30;51827;51.186;6.926;2024-01-15T02:22:25;18.20;46.50
65239;SHT30;51827;51.186;6.926;2024-01-15T02:23:26;18.21;46.45
65239;SHT30;51827;51.186;6.926;2024-01-15T02:24:26;18.22;46.49
65239;SHT30;51827;51.186;6.926;2024-01-15T02:25:26;18.22;46.47
65239;SHT30;51827;51.186;6.926;2024-01-15T02:26:26;18.21;46.45
65239;SHT30;51827;51.186;6.926;2024-01-15T02:27:27;18.22;46.47
65239;SHT30;51827;51.186;6.926;2024-01-15T02:28:27;18.21;46.50
65239;SHT30;51827;51.186;6.926;2024-01-15T02:29:27;18.22;46.51
65239;SHT30;51827;51.186;6.926;2024-01-15T02:30:28;18.25;46.46
65239;SHT30;51827;51.186;6.926;2024-01-15T02:31:29;18.22;46.46
65239;SHT30;51827;51.186;6.926;2024-01-15T02:32:29;18.22;46.46
65239;SHT30;51827;51.186;6.926;2024-01-15T02:33:29;18.22;46.48
65239;SHT30;51827;51.186;6.926;2024-01-15T02:34:32;18.21;46.47
65239;SHT30;51827;51.186;6.926;2024-01-15T02:35:33;18.22;46.51
65239;SHT30;51827;51.186;6.926;2024-01-15T02:36:33;18.21;46.48
65239;SHT30;51827;51.186;6.926;2024-01-15T02:37:33;18.21;46.54
65239;SHT30;51827;51.186;6.926;2024-01-15T02:38:33;18.21;46.53
65239;SHT30;51827;51.186;6.926;2024-01-15T02:39:34;18.22;46.53
65239;SHT30;51827;51.186;6.926;2024-01-15T02:40:34;18.24;46.52
65239;SHT30;51827;51.186;6.926;2024-01-15T02:41:35;18.21;46.51
65239;SHT30;51827;51.186;6.926;2024-01-15T02:42:35;18.21;46.54
65239;SHT30;51827;51.186;6.926;2024-01-15T02:43:35;18.22;46.54
65239;SHT30;51827;51.186;6.926;2024-01-15T02:44:36;18.20;46.52
65239;SHT30;51827;51.186;6.926;2024-01-15T02:45:36;18.21;46.58
65239;SHT30;51827;51.186;6.926;2024-01-15T02:46:36;18.21;46.57
65239;SHT30;51827;51.186;6.926;2024-01-15T02:47:36;18.21;46.57
65239;SHT30;51827;51.186;6.926;2024-01-15T02:48:37;18.21;46.56
65239;SHT30;51827;51.186;6.926;2024-01-15T02:49:37;18.22;46.57
65239;SHT30;51827;51.186;6.926;2024-01-15T02:50:37;18.20;46.57
65239;SHT30;51827;51.186;6.926;2024-01-15T02:51:38;18.22;46.53
65239;SHT30;51827;51.186;6.926;2024-01-15T02:52:38;18.21;46.59
65239;SHT30;51827;51.186;6.926;2024-01-15T02:53:38;18.21;46.61
65239;SHT30;51827;51.186;6.926;2024-01-15T02:54:39;18.22;46.58
65239;SHT30;51827;51.186;6.926;2024-01-15T02:55:39;18.20;46.61
65239;SHT30;51827;51.186;6.926;2024-01-15T02:56:39;18.20;46.59
65239;SHT30;51827;51.186;6.926;2024-01-15T02:57:39;18.22;46.58
65239;SHT30;51827;51.186;6.926;2024-01-15T02:58:40;18.21;46.58
65239;SHT30;51827;51.186;6.926;2024-01-15T02:59:40;18.22;46.58
65239;SHT30;51827;51.186;6.926;2024-01-15T03:00:40;18.21;46.58
65239;SHT30;51827;51.186;6.926;2024-01-15T03:01:40;18.21;46.60
65239;SHT30;51827;51.186;6.926;2024-01-15T03:02:43;18.22;46.63
65239;SHT30;51827;51.186;6.926;2024-01-15T03:03:43;18.20;46.60
65239;SHT30;51827;51.186;6.926;2024-01-15T03:04:44;18.24;46.58
65239;SHT30;51827;51.186;6.926;2024-01-15T03:05:44;18.20;46.59
65239;SHT30;51827;51.186;6.926;2024-01-15T03:06:44;18.20;46.62
65239;SHT30;51827;51.186;6.926;2024-01-15T03:07:45;18.22;46.62
65239;SHT30;51827;51.186;6.926;2024-01-15T03:08:45;18.21;46.63
65239;SHT30;51827;51.186;6.926;2024-01-15T03:09:45;18.22;46.58
65239;SHT30;51827;51.186;6.926;2024-01-15T03:10:46;18.21;46.57
65239;SHT30;51827;51.186;6.926;2024-01-15T03:11:46;18.21;46.62
65239;SHT30;51827;51.186;6.926;2024-01-15T03:12:46;18.24;46.64
65239;SHT30;51827;51.186;6.926;2024-01-15T03:13:46;18.21;46.63
65239;SHT30;51827;51.186;6.926;2024-01-15T03:14:47;18.21;46.62
65239;SHT30;51827;51.186;6.926;2024-01-15T03:15:47;18.21;46.61
65239;SHT30;51827;51.186;6.926;2024-01-15T03:16:47;18.22;46.61
65239;SHT30;51827;51.186;6.926;2024-01-15T03:17:47;18.22;46.64
65239;SHT30;51827;51.186;6.926;2024-01-15T03:18:48;18.24;46.58
65239;SHT30;51827;51.186;6.926;2024-01-15T03:19:48;18.24;46.58
65239;SHT30;51827;51.186;6.926;2024-01-15T03:20:48;18.25;46.58
65239;SHT30;51827;51.186;6.926;2024-01-15T03:21:48;18.21;46.63
65239;SHT30;51827;51.186;6.926;2024-01-15T03:22:49;18.22;46.61
65239;SHT30;51827;51.186;6.926;2024-01-15T03:23:49;18.22;46.65
65239;SHT30;51827;51.186;6.926;2024-01-15T03:24:49;18.18;46.70
65239;SHT30;51827;51.186;6.926;2024-01-15T03:25:49;18.21;46.66
65239;SHT30;51827;51.186;6.926;2024-01-15T03:26:49;18.21;46.68
65239;SHT30;51827;51.186;6.926;2024-01-15T03:27:50;18.21;46.70
65239;SHT30;51827;51.186;6.926;2024-01-15T03:28:50;18.22;46.68
65239;SHT30;51827;51.186;6.926;2024-01-15T03:29:50;18.21;46.70
65239;SHT30;51827;51.186;6.926;2024-01-15T03:30:50;18.18;46.72
65239;SHT30;51827;51.186;6.926;2024-01-15T03:31:51;18.20;46.72
65239;SHT30;51827;51.186;6.926;2024-01-15T03:32:51;18.18;46.70
65239;SHT30;51827;51.186;6.926;2024-01-15T03:33:51;18.20;46.68
65239;SHT30;51827;51.186;6.926;2024-01-15T03:34:51;18.22;46.65
65239;SHT30;51827;51.186;6.926;2024-01-15T03:35:52;18.21;46.70
65239;SHT30;51827;51.186;6.926;2024-01-15T03:36:52;18.21;46.73
65239;SHT30;51827;51.186;6.926;2024-01-15T03:37:52;18.22;46.72
65239;SHT30;51827;51.186;6.926;2024-01-15T03:38:52;18.21;46.68
65239;SHT30;51827;51.186;6.926;2024-01-15T03:39:53;18.22;46.67
65239;SHT30;51827;51.186;6.926;2024-01-15T03:40:53;18.21;46.71
65239;SHT30;51827;51.186;6.926;2024-01-15T03:41:53;18.21;46.68
65239;SHT30;51827;51.186;6.926;2024-01-15T03:42:53;18.22;46.71
65239;SHT30;51827;51.186;6.926;2024-01-15T03:43:53;18.22;46.68
65239;SHT30;51827;51.186;6.926;2024-01-15T03:44:54;18.22;46.69
65239;SHT30;51827;51.186;6.926;2024-01-15T03:45:54;18.21;46.67
65239;SHT30;51827;51.186;6.926;2024-01-15T03:46:54;18.24;46.68
65239;SHT30;51827;51.186;6.926;2024-01-15T03:47:54;18.21;46.71
65239;SHT30;51827;51.186;6.926;2024-01-15T03:48:55;18.21;46.70
65239;SHT30;51827;51.186;6.926;2024-01-15T03:49:55;18.24;46.69
65239;SHT30;51827;51.186;6.926;2024-01-15T03:50:55;18.20;46.70
65239;SHT30;51827;51.186;6.926;2024-01-15T03:51:56;18.21;46.69
65239;SHT30;51827;51.186;6.926;2024-01-15T03:52:56;18.21;46.74
65239;SHT30;51827;51.186;6.926;2024-01-15T03:53:56;18.21;46.70
65239;SHT30;51827;51.186;6.926;2024-01-15T03:54:56;18.24;46.68
65239;SHT30;51827;51.186;6.926;2024-01-15T03:55:56;18.21;46.65
65239;SHT30;51827;51.186;6.926;2024-01-15T03:56:57;18.22;46.67
65239;SHT30;51827;51.186;6.926;2024-01-15T03:57:57;18.21;46.68
65239;SHT30;51827;51.186;6.926;2024-01-15T03:58:57;18.21;46.70
65239;SHT30;51827;51.186;6.926;2024-01-15T03:59:57;18.22;46.70
65239;SHT30;51827;51.186;6.926;2024-01-15T04:00:58;18.21;46.69
65239;SHT30;51827;51.186;6.926;2024-01-15T04:01:58;18.21;46.68
65239;SHT30;51827;51.186;6.926;2024-01-15T04:02:58;18.21;46.72
65239;SHT30;51827;51.186;6.926;2024-01-15T04:03:58;18.22;46.70
65239;SHT30;51827;51.186;6.926;2024-01-15T04:04:59;18.21;46.67
65239;SHT30;51827;51.186;6.926;2024-01-15T04:05:59;18.21;46.70
65239;SHT30;51827;51.186;6.926;2024-01-15T04:06:59;18.24;46.70
65239;SHT30;51827;51.186;6.926;2024-01-15T04:07:59;18.21;46.71
65239;SHT30;51827;51.186;6.926;2024-01-15T04:09:00;18.22;46.71
65239;SHT30;51827;51.186;6.926;2024-01-15T04:10:00;18.22;46.69
65239;SHT30;51827;51.186;6.926;2024-01-15T04:11:00;18.21;46.71
65239;SHT30;51827;51.186;6.926;2024-01-15T04:12:01;18.22;46.70
65239;SHT30;51827;51.186;6.926;2024-01-15T04:13:01;18.20;46.72
65239;SHT30;51827;51.186;6.926;2024-01-15T04:14:01;18.21;46.75
65239;SHT30;51827;51.186;6.926;2024-01-15T04:15:01;18.21;46.72
65239;SHT30;51827;51.186;6.926;2024-01-15T04:16:02;18.20;46.76
65239;SHT30;51827;51.186;6.926;2024-01-15T04:17:02;18.22;46.75
65239;SHT30;51827;51.186;6.926;2024-01-15T04:18:03;18.22;46.70
65239;SHT30;51827;51.186;6.926;2024-01-15T04:19:03;18.21;46.71
65239;SHT30;51827;51.186;6.926;2024-01-15T04:20:04;18.20;46.74
65239;SHT30;51827;51.186;6.926;2024-01-15T04:21:05;18.21;46.71
65239;SHT30;51827;51.186;6.926;2024-01-15T04:22:05;18.21;46.73
65239;SHT30;51827;51.186;6.926;2024-01-15T04:23:05;18.21;46.71
65239;SHT30;51827;51.186;6.926;2024-01-15T04:24:06;18.21;46.72
65239;SHT30;51827;51.186;6.926;2024-01-15T04:25:06;18.22;46.71
65239;SHT30;51827;51.186;6.926;2024-01-15T04:26:07;18.21;46.75
65239;SHT30;51827;51.186;6.926;2024-01-15T04:27:07;18.24;46.72
65239;SHT30;51827;51.186;6.926;2024-01-15T04:28:07;18.21;46.72
65239;SHT30;51827;51.186;6.926;2024-01-15T04:29:07;18.22;46.70
65239;SHT30;51827;51.186;6.926;2024-01-15T04:30:08;18.20;46.75
65239;SHT30;51827;51.186;6.926;2024-01-15T04:31:08;18.21;46.74
65239;SHT30;51827;51.186;6.926;2024-01-15T04:32:09;18.25;46.75
65239;SHT30;51827;51.186;6.926;2024-01-15T04:33:09;18.25;46.74
65239;SHT30;51827;51.186;6.926;2024-01-15T04:34:09;18.20;46.74
65239;SHT30;51827;51.186;6.926;2024-01-15T04:35:09;18.24;46.76
65239;SHT30;51827;51.186;6.926;2024-01-15T04:36:10;18.21;46.77
65239;SHT30;51827;51.186;6.926;2024-01-15T04:37:10;18.25;46.76
65239;SHT30;51827;51.186;6.926;2024-01-15T04:38:10;18.24;46.75
65239;SHT30;51827;51.186;6.926;2024-01-15T04:39:11;18.24;46.82
65239;SHT30;51827;51.186;6.926;2024-01-15T04:40:11;18.24;46.80
65239;SHT30;51827;51.186;6.926;2024-01-15T04:41:12;18.22;46.80
65239;SHT30;51827;51.186;6.926;2024-01-15T04:42:13;18.22;46.82
65239;SHT30;51827;51.186;6.926;2024-01-15T04:43:13;18.22;46.81
65239;SHT30;51827;51.186;6.926;2024-01-15T04:44:13;18.22;46.88
65239;SHT30;51827;51.186;6.926;2024-01-15T04:45:13;18.24;46.88
65239;SHT30;51827;51.186;6.926;2024-01-15T04:46:14;18.21;46.83
65239;SHT30;51827;51.186;6.926;2024-01-15T04:47:14;18.24;46.85
65239;SHT30;51827;51.186;6.926;2024-01-15T04:48:14;18.24;46.85
65239;SHT30;51827;51.186;6.926;2024-01-15T04:49:14;18.24;46.85
65239;SHT30;51827;51.186;6.926;2024-01-15T04:50:15;18.24;46.92
65239;SHT30;51827;51.186;6.926;2024-01-15T04:51:15;18.22;47.15
65239;SHT30;51827;51.186;6.926;2024-01-15T04:52:16;18.21;47.23
65239;SHT30;51827;51.186;6.926;2024-01-15T04:53:16;18.24;47.18
65239;SHT30;51827;51.186;6.926;2024-01-15T04:54:16;18.22;47.23
65239;SHT30;51827;51.186;6.926;2024-01-15T04:55:16;18.24;47.17
65239;SHT30;51827;51.186;6.926;2024-01-15T04:56:17;18.25;47.15
65239;SHT30;51827;51.186;6.926;2024-01-15T04:57:17;18.24;47.18
65239;SHT30;51827;51.186;6.926;2024-01-15T04:58:17;18.25;47.16
65239;SHT30;51827;51.186;6.926;2024-01-15T04:59:17;18.25;47.11
65239;SHT30;51827;51.186;6.926;2024-01-15T05:00:18;18.24;47.04
65239;SHT30;51827;51.186;6.926;2024-01-15T05:01:18;18.25;47.07
65239;SHT30;51827;51.186;6.926;2024-01-15T05:02:18;18.24;47.06
65239;SHT30;51827;51.186;6.926;2024-01-15T05:03:18;18.25;47.05
65239;SHT30;51827;51.186;6.926;2024-01-15T05:04:19;18.25;47.05
65239;SHT30;51827;51.186;6.926;2024-01-15T05:05:19;18.27;47.02
65239;SHT30;51827;51.186;6.926;2024-01-15T05:06:19;18.25;46.99
65239;SHT30;51827;51.186;6.926;2024-01-15T05:07:19;18.27;46.99
65239;SHT30;51827;51.186;6.926;2024-01-15T05:08:19;18.22;46.94
65239;SHT30;51827;51.186;6.926;2024-01-15T05:09:20;18.27;46.93
65239;SHT30;51827;51.186;6.926;2024-01-15T05:10:20;18.25;46.91
65239;SHT30;51827;51.186;6.926;2024-01-15T05:11:20;18.28;46.92
65239;SHT30;51827;51.186;6.926;2024-01-15T05:12:20;18.28;46.94
65239;SHT30;51827;51.186;6.926;2024-01-15T05:13:21;18.27;47.29
65239;SHT30;51827;51.186;6.926;2024-01-15T05:14:21;18.28;48.17
65239;SHT30;51827;51.186;6.926;2024-01-15T05:15:21;18.28;48.54
65239;SHT30;51827;51.186;6.926;2024-01-15T05:16:21;18.31;48.42
65239;SHT30;51827;51.186;6.926;2024-01-15T05:17:22;18.32;48.45
65239;SHT30;51827;51.186;6.926;2024-01-15T05:18:22;18.32;48.46
65239;SHT30;51827;51.186;6.926;2024-01-15T05:19:22;18.32;48.33
65239;SHT30;51827;51.186;6.926;2024-01-15T05:20:22;18.32;48.18
65239;SHT30;51827;51.186;6.926;2024-01-15T05:21:23;18.31;48.05
65239;SHT30;51827;51.186;6.926;2024-01-15T05:22:23;18.30;47.97
65239;SHT30;51827;51.186;6.926;2024-01-15T05:23:23;18.32;47.92
65239;SHT30;51827;51.186;6.926;2024-01-15T05:24:23;18.32;47.82
65239;SHT30;51827;51.186;6.926;2024-01-15T05:25:24;18.31;47.77
65239;SHT30;51827;51.186;6.926;2024-01-15T05:26:24;18.31;47.72
65239;SHT30;51827;51.186;6.926;2024-01-15T05:27:24;18.32;47.66
65239;SHT30;51827;51.186;6.926;2024-01-15T05:28:24;18.32;47.61
65239;SHT30;51827;51.186;6.926;2024-01-15T05:29:25;18.31;47.62
65239;SHT30;51827;51.186;6.926;2024-01-15T05:30:25;18.32;47.61
65239;SHT30;51827;51.186;6.926;2024-01-15T05:31:25;18.32;47.55
65239;SHT30;51827;51.186;6.926;2024-01-15T05:32:25;18.30;47.56
65239;SHT30;51827;51.186;6.926;2024-01-15T05:33:25;18.32;47.59
65239;SHT30;51827;51.186;6.926;2024-01-15T05:34:26;18.31;47.52
65239;SHT30;51827;51.186;6.926;2024-01-15T05:35:26;18.32;47.56
65239;SHT30;51827;51.186;6.926;2024-01-15T05:36:26;18.32;47.56
65239;SHT30;51827;51.186;6.926;2024-01-15T05:37:26;18.32;47.50
65239;SHT30;51827;51.186;6.926;2024-01-15T05:38:27;18.35;47.46
65239;SHT30;51827;51.186;6.926;2024-01-15T05:39:27;18.31;47.48
65239;SHT30;51827;51.186;6.926;2024-01-15T05:40:27;18.32;47.49
65239;SHT30;51827;51.186;6.926;2024-01-15T05:41:28;18.31;47.43
65239;SHT30;51827;51.186;6.926;2024-01-15T05:42:28;18.31;47.44
65239;SHT30;51827;51.186;6.926;2024-01-15T05:43:28;18.30;47.39
65239;SHT30;51827;51.186;6.926;2024-01-15T05:44:29;18.32;47.39
65239;SHT30;51827;51.186;6.926;2024-01-15T05:45:30;18.31;47.34
65239;SHT30;51827;51.186;6.926;2024-01-15T05:46:30;18.30;47.32
65239;SHT30;51827;51.186;6.926;2024-01-15T05:47:30;18.31;47.34
65239;SHT30;51827;51.186;6.926;2024-01-15T05:48:31;18.30;47.37
65239;SHT30;51827;51.186;6.926;2024-01-15T05:49:31;18.30;47.38
65239;SHT30;51827;51.186;6.926;2024-01-15T05:50:31;18.30;47.38
65239;SHT30;51827;51.186;6.926;2024-01-15T05:51:31;18.31;47.33
65239;SHT30;51827;51.186;6.926;2024-01-15T05:52:32;18.31;47.34
65239;SHT30;51827;51.186;6.926;2024-01-15T05:53:32;18.30;47.39
65239;SHT30;51827;51.186;6.926;2024-01-15T05:54:32;18.30;47.33
65239;SHT30;51827;51.186;6.926;2024-01-15T05:55:33;18.32;47.41
65239;SHT30;51827;51.186;6.926;2024-01-15T05:56:33;18.31;47.33
65239;SHT30;51827;51.186;6.926;2024-01-15T05:57:33;18.32;47.31
65239;SHT30;51827;51.186;6.926;2024-01-15T05:58:33;18.34;47.36
65239;SHT30;51827;51.186;6.926;2024-01-15T05:59:34;18.31;47.31
65239;SHT30;51827;51.186;6.926;2024-01-15T06:00:34;18.30;47.34
65239;SHT30;51827;51.186;6.926;2024-01-15T06:01:35;18.31;47.33
65239;SHT30;51827;51.186;6.926;2024-01-15T06:02:37;18.31;47.36
65239;SHT30;51827;51.186;6.926;2024-01-15T06:03:38;18.31;47.39
65239;SHT30;51827;51.186;6.926;2024-01-15T06:04:38;18.32;47.35
65239;SHT30;51827;51.186;6.926;2024-01-15T06:05:38;18.31;47.37
65239;SHT30;51827;51.186;6.926;2024-01-15T06:06:38;18.32;47.37
65239;SHT30;51827;51.186;6.926;2024-01-15T06:07:39;18.32;47.39
65239;SHT30;51827;51.186;6.926;2024-01-15T06:08:39;18.28;47.39
65239;SHT30;51827;51.186;6.926;2024-01-15T06:09:39;18.30;47.37
65239;SHT30;51827;51.186;6.926;2024-01-15T06:10:39;18.32;47.39
65239;SHT30;51827;51.186;6.926;2024-01-15T06:11:40;18.31;47.39
65239;SHT30;51827;51.186;6.926;2024-01-15T06:12:40;18.34;47.38
65239;SHT30;51827;51.186;6.926;2024-01-15T06:13:41;18.31;47.43
65239;SHT30;51827;51.186;6.926;2024-01-15T06:14:41;18.30;47.41
65239;SHT30;51827;51.186;6.926;2024-01-15T06:15:41;18.30;47.42
65239;SHT30;51827;51.186;6.926;2024-01-15T06:16:42;18.31;47.38
65239;SHT30;51827;51.186;6.926;2024-01-15T06:17:42;18.32;47.44
65239;SHT30;51827;51.186;6.926;2024-01-15T06:18:42;18.31;47.38
65239;SHT30;51827;51.186;6.926;2024-01-15T06:19:43;18.30;47.43
65239;SHT30;51827;51.186;6.926;2024-01-15T06:20:43;18.30;47.38
65239;SHT30;51827;51.186;6.926;2024-01-15T06:21:43;18.31;47.37